Time;durP1;ratioP1;P1;durP2;ratioP2;P2;SDS_P1;SDS_P2;PMS_P1;PMS_P2;Temp;Humidity;BMP_temperature;BMP_pressure;BME280_temperature;BME280_humidity;BME280_pressure;Samples;Min_cycle;Max_cycle;Signal;HPM_P1;HPM_P2
2021/10/29 00:00:04;;;;;;;20.67;12.25;;;;;;;;;;5038661;28;20404;-39
2021/10/29 00:02:29;;;;;;;17.85;9.98;;;;;;;;;;5036699;28;20040;-39
2021/10/29 00:04:55;;;;;;;21.52;12.98;;;;;;;;;;5037536;28;20029;-39
2021/10/29 00:07:21;;;;;;;20.52;9.95;;;;;;;;;;5035798;28;20026;-44
2021/10/29 00:09:46;;;;;;;20.25;10.13;;;;;;;;;;5034756;28;20469;-42
2021/10/29 00:12:12;;;;;;;16.58;9.15;;;;;;;;;;5033672;28;20112;-43
2021/10/29 00:14:38;;;;;;;14.13;7.45;;;;;;;;;;5035065;28;20036;-40
2021/10/29 00:17:04;;;;;;;14.50;10.13;;;;;;;;;;5034039;28;20025;-40
2021/10/29 00:19:29;;;;;;;15.07;8.85;;;;;;;;;;5036109;28;20024;-44
2021/10/29 00:21:54;;;;;;;27.27;13.75;;;;;;;;;;5036278;28;20040;-40
2021/10/29 00:24:20;;;;;;;13.52;10.90;;;;;;;;;;5036998;28;20211;-42
2021/10/29 00:26:45;;;;;;;16.40;10.43;;;;;;;;;;5037159;28;20124;-42
2021/10/29 00:29:11;;;;;;;29.52;13.32;;;;;;;;;;5036682;28;20037;-43
2021/10/29 00:31:36;;;;;;;23.38;14.75;;;;;;;;;;5034741;28;20109;-41
2021/10/29 00:34:02;;;;;;;18.65;10.70;;;;;;;;;;5039313;28;20079;-40
2021/10/29 00:36:27;;;;;;;15.98;8.05;;;;;;;;;;5035642;28;20045;-39
2021/10/29 00:38:52;;;;;;;16.25;8.93;;;;;;;;;;5035596;28;20037;-40
2021/10/29 00:41:17;;;;;;;8.93;7.78;;;;;;;;;;5035403;28;20021;-40
2021/10/29 00:43:43;;;;;;;11.38;8.02;;;;;;;;;;5035052;28;20013;-41
2021/10/29 00:46:08;;;;;;;13.35;8.70;;;;;;;;;;5035014;28;20087;-42
2021/10/29 00:48:35;;;;;;;13.32;8.45;;;;;;;;;;5039564;28;20433;-40
2021/10/29 00:51:01;;;;;;;10.50;9.45;;;;;;;;;;5039194;28;20052;-39
2021/10/29 00:53:26;;;;;;;14.35;12.95;;;;;;;;;;5039263;28;20436;-41
2021/10/29 00:55:52;;;;;;;9.63;8.60;;;;;;;;;;5040190;28;20021;-39
2021/10/29 00:58:17;;;;;;;12.30;8.25;;;;;;;;;;5039779;28;20497;-39
2021/10/29 01:00:42;;;;;;;14.32;10.48;;;;;;;;;;5037163;28;20083;-41
2021/10/29 01:03:08;;;;;;;9.60;8.02;;;;;;;;;;5038442;28;20024;-41
2021/10/29 01:05:33;;;;;;;9.90;8.13;;;;;;;;;;5038652;28;20029;-40
2021/10/29 01:07:59;;;;;;;11.38;7.78;;;;;;;;;;5038951;28;20446;-43
2021/10/29 01:10:28;;;;;;;9.32;8.32;;;;;;;;;;5039634;28;20030;-43
2021/10/29 01:12:53;;;;;;;11.30;8.63;;;;;;;;;;5039412;28;20021;-44
2021/10/29 01:15:18;;;;;;;11.70;8.20;;;;;;;;;;5046399;28;20021;-39
2021/10/29 01:17:43;;;;;;;12.55;9.35;;;;;;;;;;5039854;28;20048;-41
2021/10/29 01:20:09;;;;;;;17.45;9.95;;;;;;;;;;5038047;28;20396;-45
2021/10/29 01:22:34;;;;;;;11.63;9.05;;;;;;;;;;5037155;28;20021;-41
2021/10/29 01:24:59;;;;;;;14.98;8.77;;;;;;;;;;5037219;28;20021;-39
2021/10/29 01:27:25;;;;;;;15.68;9.60;;;;;;;;;;5038263;28;20060;-40
2021/10/29 01:29:51;;;;;;;14.30;10.82;;;;;;;;;;5041066;28;20016;-40
2021/10/29 01:32:16;;;;;;;18.20;12.48;;;;;;;;;;5037540;28;20029;-41
2021/10/29 01:34:42;;;;;;;13.77;11.68;;;;;;;;;;5039693;28;20040;-40
2021/10/29 01:37:08;;;;;;;17.50;12.43;;;;;;;;;;5040921;28;20021;-40
2021/10/29 01:39:34;;;;;;;12.02;10.75;;;;;;;;;;5033721;28;20085;-39
2021/10/29 01:42:00;;;;;;;15.43;11.05;;;;;;;;;;5037895;28;20735;-45
2021/10/29 01:44:25;;;;;;;8.90;7.22;;;;;;;;;;5037807;28;20025;-47
2021/10/29 01:46:50;;;;;;;10.82;7.80;;;;;;;;;;5036847;28;20576;-41
2021/10/29 01:49:17;;;;;;;9.13;5.53;;;;;;;;;;5039385;28;20432;-42
2021/10/29 01:51:42;;;;;;;9.63;3.97;;;;;;;;;;5040374;28;20096;-40
2021/10/29 01:54:07;;;;;;;6.30;4.35;;;;;;;;;;5037428;28;20108;-40
2021/10/29 01:56:33;;;;;;;5.88;4.75;;;;;;;;;;5037882;28;20022;-40
2021/10/29 01:58:58;;;;;;;7.45;4.07;;;;;;;;;;5040524;28;20029;-43
2021/10/29 02:01:24;;;;;;;4.88;3.92;;;;;;;;;;5037559;28;20047;-39
2021/10/29 02:03:49;;;;;;;9.95;4.32;;;;;;;;;;5037501;28;20048;-44
2021/10/29 02:06:15;;;;;;;8.55;4.50;;;;;;;;;;5041424;28;20389;-43
2021/10/29 02:08:40;;;;;;;12.05;2.97;;;;;;;;;;5039202;28;20084;-47
2021/10/29 02:11:06;;;;;;;3.38;2.60;;;;;;;;;;5036951;28;20051;-45
2021/10/29 02:13:31;;;;;;;4.22;2.95;;;;;;;;;;5038110;28;20021;-42
2021/10/29 02:15:56;;;;;;;4.40;2.78;;;;;;;;;;5040017;28;20381;-43
2021/10/29 02:18:22;;;;;;;2.72;2.15;;;;;;;;;;5037043;28;20044;-40
2021/10/29 02:20:47;;;;;;;5.40;2.67;;;;;;;;;;5035440;28;20020;-43
2021/10/29 02:23:13;;;;;;;6.30;3.25;;;;;;;;;;5037469;28;20060;-40
2021/10/29 02:25:43;;;;;;;4.25;2.30;;;;;;;;;;5036485;28;20041;-40
2021/10/29 02:28:09;;;;;;;5.82;1.92;;;;;;;;;;5037475;28;20021;-43
2021/10/29 02:30:34;;;;;;;5.72;2.45;;;;;;;;;;5035856;28;20028;-42
2021/10/29 02:32:59;;;;;;;2.83;1.60;;;;;;;;;;5041136;28;20030;-41
2021/10/29 02:35:24;;;;;;;4.88;2.13;;;;;;;;;;5037114;28;20021;-43
2021/10/29 02:37:50;;;;;;;14.95;2.25;;;;;;;;;;5039568;28;20041;-45
2021/10/29 02:40:15;;;;;;;2.70;2.13;;;;;;;;;;5032605;28;20457;-42
2021/10/29 02:42:41;;;;;;;5.20;3.60;;;;;;;;;;5037155;28;20096;-40
2021/10/29 02:45:06;;;;;;;4.05;2.60;;;;;;;;;;5034309;28;20503;-40
2021/10/29 02:47:31;;;;;;;2.92;1.58;;;;;;;;;;5040132;28;20416;-40
2021/10/29 02:49:57;;;;;;;2.00;1.52;;;;;;;;;;5038857;28;20025;-41
2021/10/29 02:52:22;;;;;;;2.75;1.77;;;;;;;;;;5035327;28;20037;-42
2021/10/29 02:54:48;;;;;;;5.13;1.58;;;;;;;;;;5038128;28;20014;-42
2021/10/29 02:57:14;;;;;;;3.05;1.88;;;;;;;;;;5036474;28;20104;-45
2021/10/29 02:59:39;;;;;;;2.40;1.48;;;;;;;;;;5035601;28;20021;-39
2021/10/29 03:02:05;;;;;;;3.25;1.90;;;;;;;;;;5036429;28;20025;-43
2021/10/29 03:04:30;;;;;;;4.40;2.13;;;;;;;;;;5040375;28;20021;-42
2021/10/29 03:06:55;;;;;;;3.97;2.05;;;;;;;;;;5039570;28;20025;-45
2021/10/29 03:09:21;;;;;;;1.77;1.25;;;;;;;;;;5032020;28;20028;-41
2021/10/29 03:11:46;;;;;;;2.47;1.77;;;;;;;;;;5037525;28;20028;-40
2021/10/29 03:14:11;;;;;;;3.55;2.10;;;;;;;;;;5042216;28;20021;-39
2021/10/29 03:16:37;;;;;;;4.15;1.48;;;;;;;;;;5035344;28;20540;-42
2021/10/29 03:19:02;;;;;;;3.25;2.45;;;;;;;;;;5037505;28;20528;-39
2021/10/29 03:21:28;;;;;;;2.80;1.98;;;;;;;;;;5036271;28;20037;-43
2021/10/29 03:23:53;;;;;;;4.65;2.25;;;;;;;;;;5034942;28;20179;-41
2021/10/29 03:26:18;;;;;;;3.00;1.65;;;;;;;;;;5037277;28;20025;-45
2021/10/29 03:28:43;;;;;;;11.35;1.95;;;;;;;;;;5037843;28;20143;-39
2021/10/29 03:31:09;;;;;;;5.82;4.15;;;;;;;;;;5034330;28;20056;-44
2021/10/29 03:33:39;;;;;;;5.95;4.30;;;;;;;;;;5035364;28;20022;-42
2021/10/29 03:36:05;;;;;;;8.63;6.68;;;;;;;;;;5035648;28;20033;-41
2021/10/29 03:38:48;;;;;;;6.40;5.18;;;;;;;;;;5039206;28;20804;-40
2021/10/29 03:41:22;;;;;;;8.95;4.65;;;;;;;;;;5036516;28;20070;-39
2021/10/29 03:44:00;;;;;;;7.30;3.85;;;;;;;;;;5035351;28;20036;-41
2021/10/29 03:46:27;;;;;;;3.90;3.20;;;;;;;;;;5039470;28;20045;-39
2021/10/29 03:49:01;;;;;;;10.63;5.28;;;;;;;;;;5035728;28;20036;-41
2021/10/29 03:51:43;;;;;;;8.52;7.35;;;;;;;;;;5038495;28;20306;-41
2021/10/29 03:54:16;;;;;;;9.80;8.80;;;;;;;;;;5035781;28;20037;-40
2021/10/29 03:56:42;;;;;;;12.63;7.22;;;;;;;;;;5035086;28;20021;-42
2021/10/29 03:59:09;;;;;;;8.10;5.60;;;;;;;;;;5036732;28;20021;-40
2021/10/29 04:01:35;;;;;;;6.30;4.85;;;;;;;;;;5035442;28;20017;-45
2021/10/29 04:04:00;;;;;;;6.15;4.45;;;;;;;;;;5034851;28;20025;-41
2021/10/29 04:06:25;;;;;;;8.95;3.55;;;;;;;;;;5040876;28;20032;-44
2021/10/29 04:08:51;;;;;;;7.03;2.88;;;;;;;;;;5036250;28;20018;-43
2021/10/29 04:11:21;;;;;;;4.13;2.38;;;;;;;;;;5037047;28;20449;-42
2021/10/29 04:13:47;;;;;;;2.78;1.67;;;;;;;;;;5035619;28;20118;-40
2021/10/29 04:16:13;;;;;;;3.92;1.80;;;;;;;;;;5034606;28;20472;-39
2021/10/29 04:18:39;;;;;;;1.98;1.33;;;;;;;;;;5035242;28;20025;-44
2021/10/29 04:21:04;;;;;;;4.43;1.70;;;;;;;;;;5034779;28;20562;-43
2021/10/29 04:23:30;;;;;;;5.13;3.35;;;;;;;;;;5042981;28;20032;-43
2021/10/29 04:25:55;;;;;;;4.45;2.17;;;;;;;;;;5043580;28;20460;-40
2021/10/29 04:28:21;;;;;;;3.63;1.55;;;;;;;;;;5039760;28;20021;-40
2021/10/29 04:30:46;;;;;;;8.43;1.50;;;;;;;;;;5038559;28;20074;-39
2021/10/29 04:33:12;;;;;;;11.05;2.13;;;;;;;;;;5042439;28;20482;-40
2021/10/29 04:35:38;;;;;;;5.07;2.35;;;;;;;;;;5038708;28;20017;-40
2021/10/29 04:38:10;;;;;;;4.75;1.63;;;;;;;;;;5040712;28;20053;-39
2021/10/29 04:40:36;;;;;;;6.03;1.98;;;;;;;;;;5038976;28;20104;-41
2021/10/29 04:43:02;;;;;;;2.40;1.70;;;;;;;;;;5040744;28;20029;-40
2021/10/29 04:45:27;;;;;;;4.07;2.83;;;;;;;;;;5041281;28;20120;-42
2021/10/29 04:47:52;;;;;;;2.45;1.92;;;;;;;;;;5037881;28;20072;-41
2021/10/29 04:50:18;;;;;;;2.22;1.55;;;;;;;;;;5041129;28;20112;-39
2021/10/29 04:52:44;;;;;;;5.20;1.58;;;;;;;;;;5038354;28;20021;-43
2021/10/29 04:55:09;;;;;;;2.67;2.40;;;;;;;;;;5035270;28;20083;-38
2021/10/29 04:57:35;;;;;;;5.43;1.88;;;;;;;;;;5039971;28;20021;-41
2021/10/29 05:00:03;;;;;;;1.88;1.23;;;;;;;;;;5036112;28;20476;-39
2021/10/29 05:02:29;;;;;;;8.57;3.55;;;;;;;;;;5039217;28;20025;-42
2021/10/29 05:04:54;;;;;;;11.75;2.70;;;;;;;;;;5036768;28;20087;-40
2021/10/29 05:07:19;;;;;;;8.85;2.55;;;;;;;;;;5039513;28;20423;-39
2021/10/29 05:09:45;;;;;;;4.88;2.47;;;;;;;;;;5038786;28;20466;-40
2021/10/29 05:12:10;;;;;;;7.07;3.63;;;;;;;;;;5036257;28;20044;-39
2021/10/29 05:14:36;;;;;;;6.43;1.90;;;;;;;;;;5038688;28;20021;-43
2021/10/29 05:17:01;;;;;;;3.25;2.30;;;;;;;;;;5039402;28;20025;-43
2021/10/29 05:19:27;;;;;;;3.95;2.50;;;;;;;;;;5041766;28;20056;-41
2021/10/29 05:21:52;;;;;;;6.32;3.05;;;;;;;;;;5040713;28;20082;-44
2021/10/29 05:24:17;;;;;;;14.98;2.42;;;;;;;;;;5039604;28;20489;-43
2021/10/29 05:26:43;;;;;;;2.97;1.40;;;;;;;;;;5040784;28;20028;-43
2021/10/29 05:29:09;;;;;;;5.82;2.30;;;;;;;;;;5038667;28;20534;-40
2021/10/29 05:31:34;;;;;;;6.75;1.80;;;;;;;;;;5037506;28;20112;-39
2021/10/29 05:34:00;;;;;;;3.10;2.47;;;;;;;;;;5033502;28;20049;-40
2021/10/29 05:36:25;;;;;;;7.28;2.80;;;;;;;;;;5041950;28;20013;-40
2021/10/29 05:38:51;;;;;;;5.57;3.03;;;;;;;;;;5035009;28;20017;-45
2021/10/29 05:41:16;;;;;;;3.15;2.38;;;;;;;;;;5039152;28;20102;-44
2021/10/29 05:43:41;;;;;;;3.13;2.33;;;;;;;;;;5036636;28;20195;-42
2021/10/29 05:46:07;;;;;;;13.95;2.33;;;;;;;;;;5038438;28;20527;-41
2021/10/29 05:48:33;;;;;;;6.80;3.10;;;;;;;;;;5037732;28;20017;-42
2021/10/29 05:51:08;;;;;;;2.13;1.55;;;;;;;;;;5041023;28;20025;-41
2021/10/29 05:53:38;;;;;;;11.60;2.55;;;;;;;;;;5036943;28;20028;-41
2021/10/29 05:56:04;;;;;;;3.97;3.40;;;;;;;;;;5035638;28;20009;-40
2021/10/29 05:58:29;;;;;;;3.42;2.70;;;;;;;;;;5035894;28;20424;-47
2021/10/29 06:00:54;;;;;;;4.07;2.78;;;;;;;;;;5038046;28;20030;-43
2021/10/29 06:03:20;;;;;;;3.70;2.10;;;;;;;;;;5039177;28;20028;-41
2021/10/29 06:05:45;;;;;;;6.03;1.92;;;;;;;;;;5038615;28;20614;-40
2021/10/29 06:08:10;;;;;;;6.80;2.28;;;;;;;;;;5036810;28;20029;-42
2021/10/29 06:10:35;;;;;;;9.65;2.50;;;;;;;;;;5038429;28;20025;-42
2021/10/29 06:13:01;;;;;;;6.00;3.53;;;;;;;;;;5041918;28;20017;-40
2021/10/29 06:15:26;;;;;;;5.15;3.92;;;;;;;;;;5035607;28;20095;-41
2021/10/29 06:17:52;;;;;;;24.27;7.18;;;;;;;;;;5039842;28;20468;-39
2021/10/29 06:20:17;;;;;;;12.88;8.82;;;;;;;;;;5041832;28;20419;-38
2021/10/29 06:22:48;;;;;;;20.70;11.60;;;;;;;;;;5038213;28;20021;-43
2021/10/29 06:25:19;;;;;;;14.18;5.10;;;;;;;;;;5037350;28;20031;-43
2021/10/29 06:30:29;;;;;;;5.13;2.75;;;;;;;;;;5037080;28;20118;-41
2021/10/29 06:32:55;;;;;;;5.80;1.95;;;;;;;;;;5038575;28;20029;-42
2021/10/29 06:35:20;;;;;;;7.22;4.82;;;;;;;;;;5036092;28;20581;-48
2021/10/29 06:37:46;;;;;;;7.63;6.85;;;;;;;;;;5037879;28;20029;-40
2021/10/29 06:40:14;;;;;;;15.43;7.30;;;;;;;;;;5036389;28;20116;-41
2021/10/29 06:42:41;;;;;;;11.07;7.72;;;;;;;;;;5036012;28;20088;-39
2021/10/29 06:45:24;;;;;;;10.60;5.13;;;;;;;;;;5037618;28;20087;-44
2021/10/29 06:48:02;;;;;;;16.08;4.00;;;;;;;;;;5037520;28;20057;-42
2021/10/29 07:01:37;;;;;;;9.27;3.05;;;;;;;;;;5038213;28;20113;-43
2021/10/29 07:42:11;;;;;;;4.72;2.17;;;;;;;;;;5036153;28;20052;-45
2021/10/29 07:44:38;;;;;;;4.80;2.17;;;;;;;;;;5039034;28;20457;-48
2021/10/29 07:47:03;;;;;;;4.00;2.58;;;;;;;;;;5042255;28;20060;-43
2021/10/29 07:49:29;;;;;;;11.00;2.10;;;;;;;;;;5040697;28;20029;-47
2021/10/29 07:51:55;;;;;;;2.92;2.10;;;;;;;;;;5034177;28;20021;-45
2021/10/29 07:54:21;;;;;;;4.22;1.73;;;;;;;;;;5036472;28;20029;-49
2021/10/29 07:56:47;;;;;;;2.95;1.77;;;;;;;;;;5036872;28;20026;-44
2021/10/29 07:59:12;;;;;;;7.47;1.98;;;;;;;;;;5034554;28;20021;-45
2021/10/29 08:01:37;;;;;;;4.47;2.33;;;;;;;;;;5036682;28;20021;-44
2021/10/29 08:04:03;;;;;;;7.22;2.28;;;;;;;;;;5036959;28;20021;-43
2021/10/29 08:06:28;;;;;;;2.65;1.73;;;;;;;;;;5033414;28;20017;-47
2021/10/29 08:08:54;;;;;;;1.77;1.25;;;;;;;;;;5034950;28;20435;-46
2021/10/29 08:11:19;;;;;;;9.57;2.60;;;;;;;;;;5036981;28;20050;-49
2021/10/29 08:13:45;;;;;;;3.08;1.50;;;;;;;;;;5037617;28;20025;-45
2021/10/29 08:16:10;;;;;;;2.03;1.05;;;;;;;;;;5037504;28;20024;-47
2021/10/29 08:18:43;;;;;;;4.05;2.78;;;;;;;;;;5032300;28;20475;-45
2021/10/29 08:21:11;;;;;;;5.07;3.85;;;;;;;;;;5032267;28;20025;-43
2021/10/29 08:23:36;;;;;;;7.63;4.40;;;;;;;;;;5035881;28;20025;-47
2021/10/29 08:26:01;;;;;;;5.55;4.70;;;;;;;;;;5036587;28;20044;-46
2021/10/29 08:28:27;;;;;;;3.17;2.63;;;;;;;;;;5038963;28;20025;-46
2021/10/29 08:30:52;;;;;;;14.07;5.30;;;;;;;;;;5041646;28;20100;-48
2021/10/29 08:33:18;;;;;;;6.95;4.65;;;;;;;;;;5037137;28;20477;-45
2021/10/29 08:35:43;;;;;;;9.27;3.92;;;;;;;;;;5033187;28;20095;-47
2021/10/29 08:38:08;;;;;;;6.78;3.38;;;;;;;;;;5034645;28;20024;-46
2021/10/29 08:40:34;;;;;;;27.35;12.27;;;;;;;;;;5039372;28;20025;-47
2021/10/29 08:43:00;;;;;;;12.57;7.90;;;;;;;;;;5034641;28;20029;-43
2021/10/29 08:45:27;;;;;;;4.72;3.85;;;;;;;;;;5037906;28;20060;-46
2021/10/29 08:47:54;;;;;;;6.22;5.47;;;;;;;;;;5034321;28;20041;-47
2021/10/29 08:50:19;;;;;;;32.83;9.68;;;;;;;;;;5037013;28;20431;-45
2021/10/29 08:52:46;;;;;;;8.25;5.32;;;;;;;;;;5033551;28;20072;-44
2021/10/29 08:55:12;;;;;;;7.78;6.28;;;;;;;;;;5036335;28;20036;-49
2021/10/29 08:57:38;;;;;;;17.60;11.98;;;;;;;;;;5035895;28;20009;-45
2021/10/29 09:00:08;;;;;;;18.40;11.00;;;;;;;;;;5035079;28;20021;-44
2021/10/29 09:02:36;;;;;;;25.75;7.03;;;;;;;;;;5035576;28;20052;-46
2021/10/29 09:32:22;;;;;;;6.75;6.00;;;;;;;;;;5035718;28;20100;-46
2021/10/29 09:35:01;;;;;;;5.43;3.40;;;;;;;;;;5039513;28;20067;-44
2021/10/29 09:37:35;;;;;;;4.45;2.80;;;;;;;;;;5040359;28;20029;-46
2021/10/29 09:40:01;;;;;;;5.85;1.95;;;;;;;;;;5037062;28;20716;-44
2021/10/29 09:42:33;;;;;;;9.35;6.97;;;;;;;;;;5040038;28;20017;-44
2021/10/29 09:45:09;;;;;;;9.23;5.82;;;;;;;;;;5040708;28;20022;-46
2021/10/29 09:47:35;;;;;;;5.28;3.83;;;;;;;;;;5036978;28;20045;-42
2021/10/29 09:50:12;;;;;;;2.22;1.55;;;;;;;;;;5033445;28;20048;-44
2021/10/29 09:57:34;;;;;;;1.45;0.90;;;;;;;;;;5038401;28;20025;-46
2021/10/29 10:00:01;;;;;;;6.88;1.45;;;;;;;;;;5035963;28;20033;-46
2021/10/29 10:02:28;;;;;;;2.40;1.63;;;;;;;;;;5034235;28;20554;-48
2021/10/29 10:04:54;;;;;;;1.90;1.20;;;;;;;;;;5039018;28;20075;-46
2021/10/29 10:07:24;;;;;;;5.93;2.33;;;;;;;;;;5040881;28;20025;-50
2021/10/29 10:09:51;;;;;;;9.68;2.13;;;;;;;;;;5037160;28;20027;-47
2021/10/29 10:12:18;;;;;;;4.43;1.17;;;;;;;;;;5037772;28;20052;-48
2021/10/29 10:14:44;;;;;;;2.55;1.73;;;;;;;;;;5035032;28;20048;-49
2021/10/29 10:17:10;;;;;;;3.58;1.45;;;;;;;;;;5035100;28;20053;-44
2021/10/29 10:19:35;;;;;;;2.85;1.25;;;;;;;;;;5035175;28;20037;-48
2021/10/29 10:22:03;;;;;;;2.92;1.45;;;;;;;;;;5037944;28;20104;-46
2021/10/29 10:24:32;;;;;;;20.38;3.58;;;;;;;;;;5036952;28;20492;-50
2021/10/29 10:43:22;;;;;;;2.40;1.55;;;;;;;;;;5036203;28;20029;-47
2021/10/29 10:48:21;;;;;;;4.03;1.95;;;;;;;;;;5038549;28;20468;-48
2021/10/29 10:50:49;;;;;;;5.32;2.35;;;;;;;;;;5034524;28;20552;-49
2021/10/29 10:53:20;;;;;;;4.93;2.35;;;;;;;;;;5035311;28;20021;-47
2021/10/29 10:55:50;;;;;;;6.05;2.42;;;;;;;;;;5031372;28;20032;-44
2021/10/29 11:00:48;;;;;;;2.65;2.17;;;;;;;;;;5034445;28;20025;-48
2021/10/29 11:10:53;;;;;;;;;;;;;;;;;;5037781;28;20044;-47
2021/10/29 11:13:19;;;;;;;2.93;1.87;;;;;;;;;;5037303;28;19912;-50
2021/10/29 11:15:56;;;;;;;2.85;2.38;;;;;;;;;;5036131;28;20246;-50
2021/10/29 11:18:29;;;;;;;8.98;3.53;;;;;;;;;;5036008;28;20028;-50
2021/10/29 11:21:03;;;;;;;4.40;3.20;;;;;;;;;;5035238;28;20117;-47
2021/10/29 11:23:31;;;;;;;5.47;2.17;;;;;;;;;;5041809;28;20047;-48
2021/10/29 11:26:06;;;;;;;6.13;3.47;;;;;;;;;;5037024;28;20058;-49
2021/10/29 11:28:36;;;;;;;6.45;2.75;;;;;;;;;;5037051;28;20026;-45
2021/10/29 11:31:06;;;;;;;4.13;2.75;;;;;;;;;;5036023;28;20056;-50
2021/10/29 11:33:32;;;;;;;6.13;3.15;;;;;;;;;;5040486;28;20112;-48
2021/10/29 11:36:01;;;;;;;6.78;2.40;;;;;;;;;;5036393;28;20020;-49
2021/10/29 11:38:26;;;;;;;2.22;1.50;;;;;;;;;;5037636;28;20032;-50
2021/10/29 11:40:52;;;;;;;7.60;2.72;;;;;;;;;;5037558;28;20036;-46
2021/10/29 11:43:21;;;;;;;12.63;3.25;;;;;;;;;;5038079;28;20546;-44
2021/10/29 11:45:47;;;;;;;4.70;2.50;;;;;;;;;;5035732;28;20100;-45
2021/10/29 11:48:12;;;;;;;3.10;2.22;;;;;;;;;;5032424;28;20256;-47
2021/10/29 11:50:38;;;;;;;9.00;3.67;;;;;;;;;;5035135;28;20052;-49
2021/10/29 11:53:04;;;;;;;37.17;24.05;;;;;;;;;;5035693;28;20026;-50
2021/10/29 11:55:54;;;;;;;9.07;6.88;;;;;;;;;;5036015;28;20033;-48
2021/10/29 12:01:06;;;;;;;5.15;2.33;;;;;;;;;;5035737;28;20021;-47
2021/10/29 12:09:25;;;;;;;4.60;3.53;;;;;;;;;;5035415;28;20094;-44
2021/10/29 12:11:55;;;;;;;11.23;3.67;;;;;;;;;;5033552;28;20095;-48
2021/10/29 12:14:20;;;;;;;3.88;3.17;;;;;;;;;;5035416;28;20108;-49
2021/10/29 12:16:46;;;;;;;10.02;1.55;;;;;;;;;;5037262;28;20152;-45
2021/10/29 12:19:13;;;;;;;2.83;1.73;;;;;;;;;;5032354;28;20747;-48
2021/10/29 12:21:44;;;;;;;2.50;1.67;;;;;;;;;;5035592;28;20075;-46
2021/10/29 12:24:15;;;;;;;4.47;3.15;;;;;;;;;;5034003;28;20159;-52
2021/10/29 12:26:41;;;;;;;7.70;5.32;;;;;;;;;;5036020;28;20609;-52
2021/10/29 12:29:15;;;;;;;6.50;2.63;;;;;;;;;;5035640;28;20033;-53
2021/10/29 12:32:38;;;;;;;7.90;3.28;;;;;;;;;;5037164;28;20026;-51
2021/10/29 12:36:41;;;;;;;1.88;1.33;;;;;;;;;;5036248;28;20449;-49
2021/10/29 12:37:46;;;;;;;3.03;1.75;;;;;;;;;;5036445;28;20029;-51
2021/10/29 13:02:25;;;;;;;6.80;2.20;;;;;;;;;;5041522;28;20048;-46
2021/10/29 13:04:57;;;;;;;9.13;7.07;;;;;;;;;;5037412;28;20473;-44
2021/10/29 13:07:26;;;;;;;10.07;6.80;;;;;;;;;;5039595;28;20026;-50
2021/10/29 13:10:03;;;;;;;4.57;2.60;;;;;;;;;;5039919;28;20020;-45
2021/10/29 13:12:36;;;;;;;5.65;2.13;;;;;;;;;;5040044;28;20021;-50
2021/10/29 13:15:02;;;;;;;2.47;1.35;;;;;;;;;;5039841;28;20243;-46
2021/10/29 13:17:34;;;;;;;8.00;3.20;;;;;;;;;;5038112;28;20005;-48
2021/10/29 14:33:55;;;;;;;9.52;2.38;;;;;;;;;;5035566;28;20439;-48
2021/10/29 14:36:23;;;;;;;2.50;1.58;;;;;;;;;;5035011;28;20131;-47
2021/10/29 14:39:05;;;;;;;12.27;2.15;;;;;;;;;;5035073;28;20028;-50
2021/10/29 14:41:41;;;;;;;2.72;1.58;;;;;;;;;;5042414;28;20021;-46
2021/10/29 14:44:15;;;;;;;3.95;2.22;;;;;;;;;;5035322;28;20139;-46
2021/10/29 15:05:40;;;;;;;2.92;1.95;;;;;;;;;;5036327;28;20025;-52
2021/10/29 15:27:24;;;;;;;5.20;2.28;;;;;;;;;;5036455;28;20159;-48
2021/10/29 15:46:17;;;;;;;4.30;2.05;;;;;;;;;;5030153;28;20068;-52
2021/10/29 15:51:11;;;;;;;3.55;2.25;;;;;;;;;;5031201;28;20033;-52
2021/10/29 15:53:37;;;;;;;5.30;2.85;;;;;;;;;;5033793;28;20017;-49
2021/10/29 15:56:12;;;;;;;5.22;2.17;;;;;;;;;;5036492;28;20028;-47
2021/10/29 16:01:32;;;;;;;9.43;2.95;;;;;;;;;;5038776;28;20110;-50
2021/10/29 16:16:59;;;;;;;8.93;2.28;;;;;;;;;;5034532;28;20030;-49
2021/10/29 16:17:41;;;;;;;6.95;2.00;;;;;;;;;;5035547;28;20040;-50
2021/10/29 16:20:07;;;;;;;10.57;1.88;;;;;;;;;;5036036;28;20384;-47
2021/10/29 16:22:34;;;;;;;3.50;1.58;;;;;;;;;;5035137;28;20021;-48
2021/10/29 16:30:02;;;;;;;5.43;1.98;;;;;;;;;;5033427;28;20017;-48
2021/10/29 16:32:50;;;;;;;2.75;1.83;;;;;;;;;;5032441;28;20017;-50
2021/10/29 16:35:13;;;;;;;5.28;1.63;;;;;;;;;;5036809;28;20032;-52
2021/10/29 16:37:38;;;;;;;3.90;1.80;;;;;;;;;;5035031;28;20030;-52
2021/10/29 16:40:04;;;;;;;6.25;1.30;;;;;;;;;;5034723;28;20025;-46
2021/10/29 16:42:29;;;;;;;2.20;1.25;;;;;;;;;;5036183;28;20013;-47
2021/10/29 16:44:55;;;;;;;6.10;2.63;;;;;;;;;;5031468;28;20483;-56
2021/10/29 16:47:21;;;;;;;7.30;1.92;;;;;;;;;;5030798;28;20048;-48
2021/10/29 16:49:47;;;;;;;2.78;2.35;;;;;;;;;;5038405;28;20029;-51
2021/10/29 16:52:12;;;;;;;1.70;1.08;;;;;;;;;;5032932;28;20020;-48
2021/10/29 16:54:37;;;;;;;1.73;1.25;;;;;;;;;;5034683;28;20040;-50
2021/10/29 16:57:03;;;;;;;3.65;1.77;;;;;;;;;;5034723;28;20156;-52
2021/10/29 16:59:28;;;;;;;3.65;2.05;;;;;;;;;;5033853;28;20397;-45
2021/10/29 17:01:53;;;;;;;3.53;1.65;;;;;;;;;;5033388;28;20515;-48
2021/10/29 17:04:18;;;;;;;4.28;1.48;;;;;;;;;;5033205;28;20036;-51
2021/10/29 17:06:44;;;;;;;3.60;1.65;;;;;;;;;;5034609;28;20500;-50
2021/10/29 17:09:09;;;;;;;7.22;1.42;;;;;;;;;;5039041;28;20044;-47
2021/10/29 17:11:34;;;;;;;2.22;1.48;;;;;;;;;;5036258;28;20520;-52
2021/10/29 17:14:00;;;;;;;5.22;1.70;;;;;;;;;;5031167;28;20021;-50
2021/10/29 17:16:25;;;;;;;3.50;1.88;;;;;;;;;;5035438;28;20032;-52
2021/10/29 17:18:51;;;;;;;3.40;2.17;;;;;;;;;;5032706;28;20061;-53
2021/10/29 17:21:17;;;;;;;9.73;2.42;;;;;;;;;;5033858;28;20158;-52
2021/10/29 17:23:42;;;;;;;4.63;2.10;;;;;;;;;;5033604;28;20030;-54
2021/10/29 17:26:08;;;;;;;2.72;1.23;;;;;;;;;;5031431;28;20028;-51
2021/10/29 17:28:33;;;;;;;8.88;1.92;;;;;;;;;;5037132;28;20265;-47
2021/10/29 17:30:59;;;;;;;1.38;0.93;;;;;;;;;;5037834;28;20107;-51
2021/10/29 17:33:24;;;;;;;6.55;1.85;;;;;;;;;;5036809;28;20068;-53
2021/10/29 17:35:49;;;;;;;5.28;1.98;;;;;;;;;;5037906;28;20122;-48
2021/10/29 17:38:15;;;;;;;2.55;1.88;;;;;;;;;;5037549;28;20031;-49
2021/10/29 17:40:40;;;;;;;6.25;1.80;;;;;;;;;;5037679;28;20029;-53
2021/10/29 17:43:05;;;;;;;2.88;1.13;;;;;;;;;;5040926;28;20112;-49
2021/10/29 17:45:31;;;;;;;3.38;1.45;;;;;;;;;;5039076;28;20031;-52
2021/10/29 17:47:56;;;;;;;3.03;2.50;;;;;;;;;;5038444;28;20060;-50
2021/10/29 17:50:21;;;;;;;3.28;1.73;;;;;;;;;;5036834;28;20452;-53
2021/10/29 17:52:51;;;;;;;4.32;1.55;;;;;;;;;;5043505;28;20017;-53
2021/10/29 17:55:16;;;;;;;8.60;2.67;;;;;;;;;;5037438;28;20017;-48
2021/10/29 17:57:42;;;;;;;5.80;1.63;;;;;;;;;;5037213;28;20204;-49
2021/10/29 18:00:08;;;;;;;3.75;1.95;;;;;;;;;;5034364;28;20021;-53
2021/10/29 18:02:33;;;;;;;2.45;1.85;;;;;;;;;;5039391;28;20032;-50
2021/10/29 18:04:59;;;;;;;3.03;1.58;;;;;;;;;;5037901;28;20098;-53
2021/10/29 18:07:26;;;;;;;4.20;1.77;;;;;;;;;;5038164;28;20080;-52
2021/10/29 18:09:53;;;;;;;4.00;1.75;;;;;;;;;;5041455;28;20067;-50
2021/10/29 18:12:18;;;;;;;3.42;1.95;;;;;;;;;;5038824;28;20024;-53
2021/10/29 18:14:44;;;;;;;4.72;2.20;;;;;;;;;;5035665;28;20021;-51
2021/10/29 18:17:11;;;;;;;4.60;2.50;;;;;;;;;;5035406;28;20091;-53
2021/10/29 18:19:36;;;;;;;2.15;1.83;;;;;;;;;;5036413;28;20109;-51
2021/10/29 18:22:02;;;;;;;2.58;1.30;;;;;;;;;;5035055;28;20132;-47
2021/10/29 18:24:27;;;;;;;4.00;2.30;;;;;;;;;;5038612;28;20025;-53
2021/10/29 18:26:53;;;;;;;5.40;1.92;;;;;;;;;;5036159;28;20090;-52
2021/10/29 18:29:18;;;;;;;6.22;2.33;;;;;;;;;;5038803;28;20040;-53
2021/10/29 18:31:44;;;;;;;2.95;1.90;;;;;;;;;;5036767;28;20488;-53
2021/10/29 18:34:09;;;;;;;3.90;1.25;;;;;;;;;;5038424;28;20134;-53
2021/10/29 18:36:35;;;;;;;4.75;2.40;;;;;;;;;;5036642;28;20045;-52
2021/10/29 18:39:01;;;;;;;5.40;1.83;;;;;;;;;;5037815;28;20013;-54
2021/10/29 18:41:31;;;;;;;6.65;2.35;;;;;;;;;;5037901;28;20020;-53
2021/10/29 18:43:58;;;;;;;1.92;1.05;;;;;;;;;;5035485;28;20033;-53
2021/10/29 18:46:23;;;;;;;4.43;1.38;;;;;;;;;;5040115;28;20049;-52
2021/10/29 18:48:50;;;;;;;3.70;2.53;;;;;;;;;;5037545;28;20037;-54
2021/10/29 18:51:15;;;;;;;3.45;2.00;;;;;;;;;;5034795;28;20029;-51
2021/10/29 18:53:40;;;;;;;5.10;2.85;;;;;;;;;;5036527;28;20641;-51
2021/10/29 18:56:06;;;;;;;6.22;2.72;;;;;;;;;;5037015;28;20243;-51
2021/10/29 18:58:33;;;;;;;11.70;2.80;;;;;;;;;;5027800;28;20417;-49
2021/10/29 19:00:58;;;;;;;2.42;1.95;;;;;;;;;;5032912;28;20021;-54
2021/10/29 19:03:23;;;;;;;4.30;2.05;;;;;;;;;;5038991;28;20040;-53
2021/10/29 19:05:49;;;;;;;2.97;1.60;;;;;;;;;;5035465;28;20029;-52
2021/10/29 19:08:14;;;;;;;2.05;1.40;;;;;;;;;;5036536;28;20153;-48
2021/10/29 19:10:39;;;;;;;3.20;1.67;;;;;;;;;;5038617;28;20026;-51
2021/10/29 19:13:05;;;;;;;5.70;2.60;;;;;;;;;;5036432;28;20124;-52
2021/10/29 19:15:30;;;;;;;4.22;2.67;;;;;;;;;;5034701;28;20014;-48
2021/10/29 19:17:56;;;;;;;3.75;2.45;;;;;;;;;;5037277;28;20021;-48
2021/10/29 19:20:21;;;;;;;1.45;1.13;;;;;;;;;;5038108;28;20101;-54
2021/10/29 19:22:46;;;;;;;2.60;1.70;;;;;;;;;;5033544;28;20473;-46
2021/10/29 19:25:12;;;;;;;5.43;2.65;;;;;;;;;;5032795;28;20096;-48
2021/10/29 19:27:38;;;;;;;3.42;0.98;;;;;;;;;;5035690;28;20453;-42
2021/10/29 19:30:04;;;;;;;3.53;2.03;;;;;;;;;;5034719;28;20021;-43
2021/10/29 19:32:29;;;;;;;6.38;1.65;;;;;;;;;;5036096;28;20094;-43